Архив погоды в Дно

Метеограмма Дно
Воскресенье, 18 Августа
Время местн. Темп Ветер Видим Явления Облачность нижн/средн/верх Атм. давл. Влжн Точка росы ВНГО R Сост. почвы Tg s
Напр Скр Прв ур.ст ур.м изм
03:00 - +6.2° штиль 0 - - - - 756 762 -0.2 99% +6° - - - - -
00:00 - +7.4° штиль 0 - - - - 757 763 -0.8 98% +7.1° - - - - -
Суббота, 17 Августа
Время местн. Темп Ветер Видим Явления Облачность нижн/средн/верх Атм. давл. Влжн Точка росы ВНГО R Сост. почвы Tg s
Напр Скр Прв ур.ст ур.м изм
21:00 +11.4° штиль 0 - 50 км - ясно 757 763 +0.1 94% +10.5° более 2.5 км 0 - - -
18:00 - +21.3° В 3 - - - - 757 763 -0.7 48% +10° - - - - -
15:00 - +22.2° В 1 - - - - 758 764 -0.6 43% +9° - - - - -
12:00 - +21.9° В 2 - - - - 759 764 -0.4 46% +9.7° - - - - -
09:00 +17.7° В 1 - 10 км - ясно 759 765 +0.2 68% +11.7° более 2.5 км 0 Влажная (без луж) - -
06:00 - +4.3° штиль 0 - - - - 759 765 +0.2 99% +4.2° - - - - -
03:00 - +4.9° штиль 0 - - - - 759 765 +0.5 99% +4.8° - - - - -
00:00 - +6.5° штиль 0 - - - - 758 764 +0.5 98% +6.2° - - - - -
Пятница, 16 Августа
Время местн. Темп Ветер Видим Явления Облачность нижн/средн/верх Атм. давл. Влжн Точка росы ВНГО R Сост. почвы Tg s
Напр Скр Прв ур.ст ур.м изм
21:00 +11.5° штиль 0 - 20 км - ясно 758 764 +0.5 94% +10.6° более 2.5 км 0 - - -
18:00 - +21.3° С,С-В 1 - - - - 757 763 -0.2 47% +9.6° - - - - -
15:00 - +20° З 1 - - - - 757 763 -0.2 52% +9.9° - - - - -
12:00 - +18.7° С 1 - - - - 758 763 -0.1 60% +10.7° - - - - -
09:00 +14.6° З 2 - 20 км - ясно 758 763 +0.3 87% +12.5° более 2.5 км 0 Влажная (без луж) - -
06:00 - +4.6° штиль 0 - - - - 757 763 +0.7 99% +4.5° - - - - -
03:00 - +5.3° штиль 0 - - - - 757 763 +0.6 99% +5.2° - - - - -
00:00 - +7.7° штиль 0 - - - - 756 762 +0.8 98% +7.4° - - - - -
Четверг, 15 Августа
Время местн. Темп Ветер Видим Явления Облачность нижн/средн/верх Атм. давл. Влжн Точка росы ВНГО R Сост. почвы Tg s
Напр Скр Прв ур.ст ур.м изм
21:00 +13.5° Ю 1 - 50 км - переменная облачность 755 761 +0.9 92% +12.2° - 0.4 - - -
18:00 - +19° Ю-З 2 - - - - 754 760 +0.5 57% +10.2° - - - - -
15:00 - +19.8° З,Ю-З 3 - - - - 754 760 +0.2 52% +9.6° - - - - -
12:00 - +18.1° З 3 - - - - 754 759 +0.5 62% +10.8° - - - - -
09:00 +14.9° З 3 - 20 км - ясно 753 759 +0.6 87% +12.8° более 2.5 км 10 Сырая (есть малые или большие лужи) +12° -
06:00 - +11.9° Ю-З 1 - - - - 753 759 +0.1 98% +11.6° - - - - -
03:00 - +13.7° З,С-З 2 - - - - 753 758 +0.2 98% +13.4° - - - - -
00:00 - +14° З,Ю-З 1 - - - - 753 758 -0.5 97% +13.5° - - - - -